createdAt,value
2022-08-30T04:30:52.671Z,1004.05
2022-08-30T04:31:52.705Z,1004.03
2022-08-30T04:32:56.730Z,1004.08
2022-08-30T04:33:52.655Z,1004.04
2022-08-30T04:34:52.617Z,1004.06
2022-08-30T04:35:52.605Z,1004.08
2022-08-30T04:36:52.654Z,1004.07
2022-08-30T04:37:52.637Z,1004.01
2022-08-30T04:38:52.581Z,1004.09
2022-08-30T04:39:52.637Z,1004.09
2022-08-30T04:40:52.565Z,1004.07
2022-08-30T04:41:52.571Z,1004.08
2022-08-30T04:42:52.573Z,1004.10
2022-08-30T04:43:52.535Z,1004.11
2022-08-30T04:44:52.537Z,1004.12
2022-08-30T04:45:52.535Z,1004.11
2022-08-30T04:46:52.510Z,1004.09
2022-08-30T04:47:52.490Z,1004.15
2022-08-30T04:48:52.484Z,1004.17
2022-08-30T04:49:52.450Z,1004.15
2022-08-30T04:50:52.449Z,1004.22
2022-08-30T04:51:52.446Z,1004.21
2022-08-30T04:52:52.431Z,1004.26
2022-08-30T04:53:52.398Z,1004.25
2022-08-30T04:54:52.407Z,1004.23
2022-08-30T04:55:52.380Z,1004.20
2022-08-30T04:56:52.370Z,1004.18
2022-08-30T04:57:52.382Z,1004.17
2022-08-30T04:58:52.349Z,1004.21
2022-08-30T04:59:52.349Z,1004.19
2022-08-30T05:00:52.376Z,1004.22
2022-08-30T05:01:52.362Z,1004.23
2022-08-30T05:02:52.325Z,1004.17
2022-08-30T05:03:52.312Z,1004.20
2022-08-30T05:04:52.310Z,1004.23
2022-08-30T05:05:52.287Z,1004.23
2022-08-30T05:06:52.269Z,1004.25
2022-08-30T05:07:52.254Z,1004.25
2022-08-30T05:08:52.241Z,1004.23
2022-08-30T05:09:52.227Z,1004.25
2022-08-30T05:10:52.266Z,1004.26
2022-08-30T05:11:52.207Z,1004.27
2022-08-30T05:12:52.197Z,1004.28
2022-08-30T05:13:52.208Z,1004.28
2022-08-30T05:14:52.178Z,1004.31
2022-08-30T05:15:52.229Z,1004.33
2022-08-30T05:16:52.178Z,1004.30
2022-08-30T05:17:52.147Z,1004.26
2022-08-30T05:18:52.131Z,1004.32
2022-08-30T05:19:52.139Z,1004.35
2022-08-30T05:20:52.111Z,1004.33
2022-08-30T05:21:52.107Z,1004.39
2022-08-30T05:22:53.502Z,1004.41
2022-08-30T05:23:52.094Z,1004.44
2022-08-30T05:24:52.072Z,1004.43
2022-08-30T05:25:52.057Z,1004.47
2022-08-30T05:26:52.087Z,1004.46
2022-08-30T05:27:52.093Z,1004.47
2022-08-30T05:28:52.030Z,1004.46
2022-08-30T05:29:52.021Z,1004.46
2022-08-30T05:30:52.100Z,1004.43
2022-08-30T05:31:52.056Z,1004.45
2022-08-30T05:32:52.034Z,1004.46
2022-08-30T05:33:51.975Z,1004.47
2022-08-30T05:34:52.015Z,1004.49
2022-08-30T05:35:51.944Z,1004.51
2022-08-30T05:36:51.940Z,1004.51
2022-08-30T05:37:51.946Z,1004.56
2022-08-30T05:38:51.934Z,1004.51
2022-08-30T05:39:52.071Z,1004.56
2022-08-30T05:40:51.964Z,1004.54
2022-08-30T05:41:51.939Z,1004.54
2022-08-30T05:42:51.908Z,1004.54
2022-08-30T05:43:51.879Z,1004.59
2022-08-30T05:44:51.855Z,1004.49
2022-08-30T05:45:51.841Z,1004.53
2022-08-30T05:46:51.845Z,1004.55
2022-08-30T05:47:51.897Z,1004.52
2022-08-30T05:48:51.818Z,1004.53
2022-08-30T05:49:51.798Z,1004.53
2022-08-30T05:50:51.801Z,1004.48
2022-08-30T05:51:51.787Z,1004.49
2022-08-30T05:52:51.782Z,1004.50
2022-08-30T05:53:51.821Z,1004.50
2022-08-30T05:54:51.756Z,1004.48
2022-08-30T05:55:51.727Z,1004.50
2022-08-30T05:56:51.736Z,1004.48
2022-08-30T05:57:51.706Z,1004.47
2022-08-30T05:58:51.703Z,1004.46
2022-08-30T05:59:51.765Z,1004.49
2022-08-30T06:00:51.707Z,1004.46
2022-08-30T06:01:51.728Z,1004.39
2022-08-30T06:02:51.751Z,1004.41
2022-08-30T06:03:51.692Z,1004.45
2022-08-30T06:04:51.631Z,1004.43
2022-08-30T06:05:51.695Z,1004.43
2022-08-30T06:06:51.615Z,1004.41
2022-08-30T06:07:51.596Z,1004.42
2022-08-30T06:08:51.587Z,1004.44
2022-08-30T06:09:51.599Z,1004.41
2022-08-30T06:10:51.566Z,1004.38
2022-08-30T06:11:51.622Z,1004.39
2022-08-30T06:12:51.541Z,1004.40
2022-08-30T06:13:51.531Z,1004.39
2022-08-30T06:14:51.521Z,1004.38
2022-08-30T06:15:51.568Z,1004.37
2022-08-30T06:16:51.503Z,1004.42
2022-08-30T06:17:51.654Z,1004.37
2022-08-30T06:18:51.495Z,1004.40
2022-08-30T06:19:51.464Z,1004.37
2022-08-30T06:20:51.465Z,1004.39
2022-08-30T06:21:51.440Z,1004.39
2022-08-30T06:22:51.445Z,1004.33
2022-08-30T06:23:51.479Z,1004.35
2022-08-30T06:24:57.520Z,1004.38
2022-08-30T06:25:52.401Z,1004.37
2022-08-30T06:26:51.428Z,1004.42
2022-08-30T06:27:55.954Z,1004.38
2022-08-30T06:28:52.383Z,1004.38
2022-08-30T06:29:51.407Z,1004.37
2022-08-30T06:30:51.419Z,1004.37
2022-08-30T06:31:51.322Z,1004.40
2022-08-30T06:32:51.321Z,1004.38
2022-08-30T06:33:51.332Z,1004.43
2022-08-30T06:34:51.298Z,1004.40
2022-08-30T06:35:59.143Z,1004.32
2022-08-30T06:36:52.288Z,1004.33
2022-08-30T06:37:51.281Z,1004.30
2022-08-30T06:38:51.285Z,1004.28
2022-08-30T06:39:51.239Z,1004.29
2022-08-30T06:40:51.249Z,1004.28
2022-08-30T06:41:51.251Z,1004.29
2022-08-30T06:42:51.209Z,1004.28
2022-08-30T06:43:51.222Z,1004.32
2022-08-30T06:44:51.491Z,1004.26
2022-08-30T06:45:51.184Z,1004.29
2022-08-30T06:46:51.276Z,1004.30
2022-08-30T06:47:51.185Z,1004.32
2022-08-30T06:48:51.206Z,1004.33
2022-08-30T06:49:51.131Z,1004.32
2022-08-30T06:50:51.125Z,1004.30
2022-08-30T06:51:51.112Z,1004.27
2022-08-30T06:52:51.114Z,1004.26
2022-08-30T06:53:51.111Z,1004.28
2022-08-30T06:54:51.138Z,1004.27
2022-08-30T06:55:51.070Z,1004.25
2022-08-30T06:56:59.080Z,1004.22
2022-08-30T06:57:52.058Z,1004.27
2022-08-30T06:58:51.046Z,1004.26
2022-08-30T06:59:55.336Z,1004.29
2022-08-30T07:00:52.071Z,1004.35
2022-08-30T07:01:51.095Z,1004.36
2022-08-30T07:02:51.056Z,1004.38
2022-08-30T07:03:50.996Z,1004.42
2022-08-30T07:04:50.981Z,1004.41
2022-08-30T07:05:50.964Z,1004.45
2022-08-30T07:06:50.991Z,1004.46
2022-08-30T07:07:50.952Z,1004.42
2022-08-30T07:08:50.938Z,1004.43
2022-08-30T07:09:51.919Z,1004.45
2022-08-30T07:10:50.915Z,1004.47
2022-08-30T07:11:50.946Z,1004.50
2022-08-30T07:12:50.900Z,1004.52
2022-08-30T07:13:50.950Z,1004.53
2022-08-30T07:14:50.862Z,1004.54
2022-08-30T07:15:50.955Z,1004.56
2022-08-30T07:16:51.943Z,1004.57
2022-08-30T07:17:50.858Z,1004.58
2022-08-30T07:18:50.829Z,1004.59
2022-08-30T07:19:50.838Z,1004.59
2022-08-30T07:20:50.813Z,1004.57
2022-08-30T07:21:50.798Z,1004.60
2022-08-30T07:22:50.822Z,1004.62
2022-08-30T07:23:53.443Z,1004.62
2022-08-30T07:24:50.749Z,1004.61
2022-08-30T07:25:50.798Z,1004.65
2022-08-30T07:26:50.750Z,1004.65
2022-08-30T07:27:50.714Z,1004.63
2022-08-30T07:28:55.981Z,1004.67
2022-08-30T07:29:51.717Z,1004.66
2022-08-30T07:30:50.695Z,1004.63
2022-08-30T07:31:50.677Z,1004.66
2022-08-30T07:32:50.684Z,1004.62
2022-08-30T07:33:50.652Z,1004.65
2022-08-30T07:34:51.659Z,1004.62
2022-08-30T07:35:50.666Z,1004.60
2022-08-30T07:36:50.642Z,1004.66
2022-08-30T07:37:50.611Z,1004.66
2022-08-30T07:38:50.610Z,1004.63
2022-08-30T07:39:50.612Z,1004.61
2022-08-30T07:40:50.600Z,1004.65
2022-08-30T07:41:50.569Z,1004.63
2022-08-30T07:42:50.559Z,1004.56
2022-08-30T07:43:50.539Z,1004.60
2022-08-30T07:44:54.710Z,1004.61
2022-08-30T07:45:51.529Z,1004.59
2022-08-30T07:46:50.595Z,1004.62
2022-08-30T07:47:50.509Z,1004.65
2022-08-30T07:48:50.503Z,1004.69
2022-08-30T07:49:50.496Z,1004.67
2022-08-30T07:50:54.822Z,1004.68
2022-08-30T07:51:51.477Z,1004.69
2022-08-30T07:52:50.486Z,1004.72
2022-08-30T07:53:50.455Z,1004.67
2022-08-30T07:54:52.807Z,1004.66
2022-08-30T07:55:50.419Z,1004.65
2022-08-30T07:56:50.432Z,1004.60
2022-08-30T07:57:50.416Z,1004.60
2022-08-30T07:58:50.392Z,1004.62
2022-08-30T07:59:50.399Z,1004.60
2022-08-30T08:00:50.365Z,1004.62
2022-08-30T08:01:50.436Z,1004.64
2022-08-30T08:02:50.416Z,1004.65
2022-08-30T08:03:50.462Z,1004.61
2022-08-30T08:04:50.320Z,1004.67
2022-08-30T08:05:50.321Z,1004.66
2022-08-30T08:06:50.308Z,1004.66
2022-08-30T08:07:50.292Z,1004.68
2022-08-30T08:08:50.394Z,1004.67
2022-08-30T08:09:50.265Z,1004.63
2022-08-30T08:10:50.259Z,1004.63
2022-08-30T08:11:50.244Z,1004.62
2022-08-30T08:12:50.243Z,1004.63
2022-08-30T08:13:53.521Z,1004.64
2022-08-30T08:14:50.240Z,1004.64
2022-08-30T08:15:50.248Z,1004.65
2022-08-30T08:16:50.204Z,1004.66
2022-08-30T08:17:50.233Z,1004.65
2022-08-30T08:18:50.175Z,1004.65
2022-08-30T08:19:50.165Z,1004.63
2022-08-30T08:20:50.159Z,1004.66
2022-08-30T08:21:59.411Z,1004.61
2022-08-30T08:22:51.127Z,1004.64
2022-08-30T08:23:50.122Z,1004.57
2022-08-30T08:24:50.095Z,1004.58
2022-08-30T08:25:50.106Z,1004.59
2022-08-30T08:26:50.077Z,1004.57
2022-08-30T08:27:50.086Z,1004.57
2022-08-30T08:28:50.092Z,1004.59
2022-08-30T08:29:50.086Z,1004.60
2022-08-30T08:30:50.115Z,1004.59
2022-08-30T08:31:50.133Z,1004.63
2022-08-30T08:32:50.007Z,1004.59
2022-08-30T08:33:50.058Z,1004.58
2022-08-30T08:34:50.017Z,1004.64
2022-08-30T08:35:50.031Z,1004.61
2022-08-30T08:36:49.992Z,1004.62
2022-08-30T08:37:49.960Z,1004.60
2022-08-30T08:38:49.997Z,1004.62
2022-08-30T08:39:49.960Z,1004.62
2022-08-30T08:40:50.299Z,1004.59
2022-08-30T08:41:49.969Z,1004.61
2022-08-30T08:42:49.918Z,1004.58
2022-08-30T08:43:49.905Z,1004.61
2022-08-30T08:44:49.882Z,1004.62
2022-08-30T08:45:50.005Z,1004.62
2022-08-30T08:46:49.885Z,1004.62
2022-08-30T08:47:50.709Z,1004.61
2022-08-30T08:49:00.309Z,1004.60
2022-08-30T08:49:50.841Z,1004.55
2022-08-30T08:50:49.839Z,1004.61
2022-08-30T08:51:49.819Z,1004.58
2022-08-30T08:52:49.800Z,1004.61
2022-08-30T08:53:49.806Z,1004.61
2022-08-30T08:54:49.792Z,1004.59
2022-08-30T08:55:49.808Z,1004.62
2022-08-30T08:56:49.759Z,1004.63
2022-08-30T08:57:49.753Z,1004.55
2022-08-30T08:58:49.734Z,1004.52
2022-08-30T08:59:49.751Z,1004.54
2022-08-30T09:00:49.730Z,1004.47
2022-08-30T09:01:49.770Z,1004.48
2022-08-30T09:02:52.741Z,1004.50
2022-08-30T09:03:50.681Z,1004.48
2022-08-30T09:04:49.706Z,1004.47
2022-08-30T09:05:49.688Z,1004.45
2022-08-30T09:06:49.653Z,1004.51
2022-08-30T09:07:49.663Z,1004.50
2022-08-30T09:08:49.644Z,1004.47
2022-08-30T09:09:49.620Z,1004.47
2022-08-30T09:10:51.048Z,1004.51
2022-08-30T09:11:49.701Z,1004.55
2022-08-30T09:12:49.592Z,1004.51
2022-08-30T09:13:49.574Z,1004.52
2022-08-30T09:14:49.579Z,1004.45
2022-08-30T09:15:53.832Z,1004.45
2022-08-30T09:16:50.559Z,1004.50
2022-08-30T09:17:49.530Z,1004.43
2022-08-30T09:18:54.455Z,1004.44
2022-08-30T09:19:50.501Z,1004.43
2022-08-30T09:20:49.515Z,1004.39
2022-08-30T09:21:49.484Z,1004.45
2022-08-30T09:22:49.488Z,1004.41
2022-08-30T09:23:49.465Z,1004.41
2022-08-30T09:24:49.450Z,1004.40
2022-08-30T09:25:49.438Z,1004.35
2022-08-30T09:26:49.459Z,1004.39
2022-08-30T09:27:49.430Z,1004.33
2022-08-30T09:28:49.577Z,1004.35
2022-08-30T09:29:49.392Z,1004.37
2022-08-30T09:30:49.407Z,1004.39
2022-08-30T09:31:49.384Z,1004.25
2022-08-30T09:32:49.399Z,1004.26
2022-08-30T09:33:49.349Z,1004.25
2022-08-30T09:34:49.340Z,1004.29
2022-08-30T09:35:49.330Z,1004.26
2022-08-30T09:36:49.315Z,1004.32
2022-08-30T09:37:49.303Z,1004.27
2022-08-30T09:38:49.325Z,1004.31
2022-08-30T09:39:49.308Z,1004.29
2022-08-30T09:40:49.276Z,1004.25
2022-08-30T09:41:49.263Z,1004.25
2022-08-30T09:42:49.250Z,1004.28
2022-08-30T09:43:49.255Z,1004.29
2022-08-30T09:44:49.229Z,1004.28
2022-08-30T09:45:49.712Z,1004.25
2022-08-30T09:46:49.331Z,1004.25
2022-08-30T09:47:49.631Z,1004.28
2022-08-30T09:48:49.335Z,1004.24
2022-08-30T09:49:49.179Z,1004.21
2022-08-30T09:50:49.164Z,1004.19
2022-08-30T09:51:49.168Z,1004.18
2022-08-30T09:52:54.540Z,1004.14
2022-08-30T09:54:07.349Z,1004.16
2022-08-30T09:54:50.139Z,1004.10
2022-08-30T09:55:49.153Z,1004.11
2022-08-30T09:56:49.103Z,1004.10
2022-08-30T09:57:49.088Z,1004.14
2022-08-30T09:58:49.110Z,1004.10
2022-08-30T09:59:49.072Z,1004.15
2022-08-30T10:00:49.071Z,1004.19
2022-08-30T10:01:49.766Z,1004.19
2022-08-30T10:02:49.052Z,1004.16
2022-08-30T10:03:49.022Z,1004.12
2022-08-30T10:04:49.020Z,1004.11
2022-08-30T10:05:49.001Z,1004.16
2022-08-30T10:06:49.026Z,1004.15
2022-08-30T10:07:49.025Z,1004.13
2022-08-30T10:08:48.982Z,1004.16
2022-08-30T10:09:48.976Z,1004.14
2022-08-30T10:10:48.947Z,1004.12
2022-08-30T10:11:48.951Z,1004.09
2022-08-30T10:12:48.937Z,1004.08
2022-08-30T10:13:48.919Z,1004.08
2022-08-30T10:14:48.902Z,1004.12
2022-08-30T10:15:48.923Z,1004.04
2022-08-30T10:16:48.918Z,1004.04
2022-08-30T10:17:48.880Z,1004.03
2022-08-30T10:18:48.867Z,1004.00
2022-08-30T10:19:48.859Z,1004.02
2022-08-30T10:20:48.857Z,1003.95
2022-08-30T10:21:48.829Z,1003.97
2022-08-30T10:22:48.857Z,1003.94
2022-08-30T10:23:48.806Z,1003.94
2022-08-30T10:24:48.798Z,1003.94
2022-08-30T10:25:48.812Z,1003.94
2022-08-30T10:26:48.783Z,1003.92
2022-08-30T10:27:48.791Z,1003.90
2022-08-30T10:28:48.759Z,1003.94
2022-08-30T10:29:48.761Z,1003.93
2022-08-30T10:30:48.755Z,1003.90
2022-08-30T10:31:48.736Z,1003.93
2022-08-30T10:32:48.724Z,1003.90
2022-08-30T10:33:48.722Z,1003.91
2022-08-30T10:34:48.694Z,1003.88
2022-08-30T10:35:48.680Z,1003.90
2022-08-30T10:36:48.752Z,1003.91
2022-08-30T10:37:48.659Z,1003.91
2022-08-30T10:38:48.670Z,1003.89
2022-08-30T10:39:48.638Z,1003.87
2022-08-30T10:40:48.625Z,1003.83
2022-08-30T10:41:48.653Z,1003.85
2022-08-30T10:42:48.627Z,1003.84
2022-08-30T10:43:50.896Z,1003.81
2022-08-30T10:44:48.586Z,1003.80
2022-08-30T10:45:48.580Z,1003.81
2022-08-30T10:46:48.592Z,1003.78
2022-08-30T10:47:48.554Z,1003.83
2022-08-30T10:48:48.571Z,1003.76
2022-08-30T10:49:48.531Z,1003.76
2022-08-30T10:50:48.524Z,1003.80
2022-08-30T10:51:48.523Z,1003.77
2022-08-30T10:52:48.635Z,1003.80
2022-08-30T10:53:48.492Z,1003.75
2022-08-30T10:54:48.495Z,1003.82
2022-08-30T10:55:50.250Z,1003.81
2022-08-30T10:56:48.453Z,1003.79
2022-08-30T10:57:48.465Z,1003.73
2022-08-30T10:58:48.466Z,1003.75
2022-08-30T10:59:48.428Z,1003.79
2022-08-30T11:00:48.543Z,1003.77
2022-08-30T11:01:48.489Z,1003.76
2022-08-30T11:02:48.421Z,1003.76
2022-08-30T11:03:48.401Z,1003.69
2022-08-30T11:04:48.385Z,1003.75
2022-08-30T11:05:48.367Z,1003.72
2022-08-30T11:06:48.399Z,1003.76
2022-08-30T11:07:49.357Z,1003.68
2022-08-30T11:08:48.368Z,1003.72
2022-08-30T11:09:48.319Z,1003.72
2022-08-30T11:10:49.937Z,1003.74
2022-08-30T11:11:48.310Z,1003.69
2022-08-30T11:12:48.299Z,1003.68
2022-08-30T11:13:48.287Z,1003.68
2022-08-30T11:14:48.263Z,1003.67
2022-08-30T11:15:48.284Z,1003.71
2022-08-30T11:16:48.346Z,1003.67
2022-08-30T11:17:48.270Z,1003.66
2022-08-30T11:18:50.884Z,1003.67
2022-08-30T11:19:48.216Z,1003.73
2022-08-30T11:20:48.198Z,1003.64
2022-08-30T11:21:48.191Z,1003.62
2022-08-30T11:22:48.176Z,1003.65
2022-08-30T11:23:48.182Z,1003.62
2022-08-30T11:24:48.179Z,1003.65
2022-08-30T11:25:48.144Z,1003.64
2022-08-30T11:26:49.140Z,1003.61
2022-08-30T11:27:48.130Z,1003.59
2022-08-30T11:28:48.106Z,1003.55
2022-08-30T11:29:48.118Z,1003.57
2022-08-30T11:30:48.109Z,1003.50
2022-08-30T11:31:48.087Z,1003.46
2022-08-30T11:32:48.074Z,1003.54
2022-08-30T11:33:48.080Z,1003.54
2022-08-30T11:34:48.058Z,1003.50
2022-08-30T11:35:48.779Z,1003.51
2022-08-30T11:36:48.054Z,1003.55
2022-08-30T11:37:48.064Z,1003.54
2022-08-30T11:38:48.004Z,1003.53
2022-08-30T11:39:48.029Z,1003.51
2022-08-30T11:40:47.992Z,1003.49
2022-08-30T11:41:48.286Z,1003.48
2022-08-30T11:42:48.105Z,1003.45
2022-08-30T11:43:47.958Z,1003.42
2022-08-30T11:44:47.963Z,1003.42
2022-08-30T11:45:47.993Z,1003.43
2022-08-30T11:46:47.918Z,1003.44
2022-08-30T11:47:47.945Z,1003.47
2022-08-30T11:48:54.487Z,1003.41
2022-08-30T11:49:50.209Z,1003.49
2022-08-30T11:50:48.542Z,1003.45
2022-08-30T11:52:08.185Z,1003.43
2022-08-30T11:52:48.938Z,1003.38
2022-08-30T11:53:47.882Z,1003.31
2022-08-30T11:54:51.053Z,1003.33
2022-08-30T11:55:48.845Z,1003.30
2022-08-30T11:56:47.815Z,1003.30
2022-08-30T11:57:47.835Z,1003.26
2022-08-30T11:58:47.798Z,1003.27
2022-08-30T11:59:47.805Z,1003.30
2022-08-30T12:00:52.572Z,1003.27
2022-08-30T12:01:50.363Z,1003.19
2022-08-30T12:02:48.007Z,1003.20
2022-08-30T12:03:47.849Z,1003.21
2022-08-30T12:04:47.730Z,1003.22
2022-08-30T12:05:48.211Z,1003.19
2022-08-30T12:06:47.722Z,1003.15
2022-08-30T12:07:47.707Z,1003.19
2022-08-30T12:08:47.716Z,1003.18
2022-08-30T12:09:47.725Z,1003.15
2022-08-30T12:10:47.672Z,1003.21
2022-08-30T12:11:47.671Z,1003.19
2022-08-30T12:12:47.700Z,1003.14
2022-08-30T12:13:47.640Z,1003.10
2022-08-30T12:14:47.808Z,1003.14
2022-08-30T12:15:47.652Z,1003.13
2022-08-30T12:16:47.710Z,1003.18
2022-08-30T12:17:47.596Z,1003.19
2022-08-30T12:18:47.625Z,1003.18
2022-08-30T12:19:50.241Z,1003.16
2022-08-30T12:20:47.567Z,1003.16
2022-08-30T12:21:47.575Z,1003.17
2022-08-30T12:22:47.546Z,1003.16
2022-08-30T12:23:47.560Z,1003.14
2022-08-30T12:24:47.526Z,1003.17
2022-08-30T12:25:47.523Z,1003.18
2022-08-30T12:26:47.494Z,1003.14
2022-08-30T12:27:47.643Z,1003.12
2022-08-30T12:28:47.482Z,1003.16
2022-08-30T12:29:47.490Z,1003.13
2022-08-30T12:30:47.472Z,1003.12
2022-08-30T12:31:47.523Z,1003.08
2022-08-30T12:32:47.433Z,1003.10
2022-08-30T12:33:47.423Z,1003.06
2022-08-30T12:34:47.433Z,1003.02
2022-08-30T12:35:47.405Z,1002.99
2022-08-30T12:36:47.424Z,1002.98
2022-08-30T12:37:47.383Z,1003.05
2022-08-30T12:38:47.396Z,1003.06
2022-08-30T12:39:53.406Z,1002.99
2022-08-30T12:40:48.429Z,1003.03
2022-08-30T12:41:47.345Z,1002.99
2022-08-30T12:42:47.365Z,1003.03
2022-08-30T12:43:47.370Z,1003.04
2022-08-30T12:44:47.309Z,1003.03
2022-08-30T12:45:50.916Z,1003.00
2022-08-30T12:46:47.283Z,1003.01
2022-08-30T12:47:47.279Z,1003.01
2022-08-30T12:48:47.308Z,1003.02
2022-08-30T12:49:47.256Z,1003.02
2022-08-30T12:50:47.246Z,1002.98
2022-08-30T12:51:47.233Z,1002.97
2022-08-30T12:52:47.221Z,1002.96
2022-08-30T12:53:47.235Z,1003.01
2022-08-30T12:54:47.226Z,1002.94
2022-08-30T12:55:47.194Z,1002.96
2022-08-30T12:56:49.817Z,1002.94
2022-08-30T12:57:47.178Z,1002.90
2022-08-30T12:58:47.158Z,1002.97
2022-08-30T12:59:53.005Z,1002.93
2022-08-30T13:00:48.269Z,1002.89
2022-08-30T13:01:47.945Z,1002.91
2022-08-30T13:02:47.141Z,1002.88
2022-08-30T13:03:47.108Z,1002.88
2022-08-30T13:04:47.111Z,1002.90
2022-08-30T13:05:48.361Z,1002.88
2022-08-30T13:06:47.093Z,1002.83
2022-08-30T13:07:47.091Z,1002.92
2022-08-30T13:08:47.079Z,1002.86
2022-08-30T13:09:47.051Z,1002.91
2022-08-30T13:10:47.048Z,1002.87
2022-08-30T13:11:47.022Z,1002.88
2022-08-30T13:12:47.009Z,1002.81
2022-08-30T13:13:52.003Z,1002.84
2022-08-30T13:14:47.996Z,1002.75
2022-08-30T13:15:46.996Z,1002.77
2022-08-30T13:16:47.043Z,1002.77
2022-08-30T13:17:46.962Z,1002.72
2022-08-30T13:18:46.948Z,1002.77
2022-08-30T13:19:46.977Z,1002.74
2022-08-30T13:20:46.946Z,1002.74
2022-08-30T13:21:46.934Z,1002.72
2022-08-30T13:22:46.942Z,1002.72
2022-08-30T13:23:46.892Z,1002.70
2022-08-30T13:24:46.892Z,1002.71
2022-08-30T13:25:46.904Z,1002.66
2022-08-30T13:26:46.869Z,1002.67
2022-08-30T13:27:46.865Z,1002.60
2022-08-30T13:28:48.832Z,1002.64
2022-08-30T13:29:46.835Z,1002.61
2022-08-30T13:30:46.827Z,1002.60
2022-08-30T13:31:46.855Z,1002.61
2022-08-30T13:32:46.812Z,1002.60
2022-08-30T13:33:46.805Z,1002.57
2022-08-30T13:34:46.804Z,1002.54
2022-08-30T13:35:46.783Z,1002.58
2022-08-30T13:36:46.851Z,1002.58
2022-08-30T13:37:47.583Z,1002.63
2022-08-30T13:38:46.747Z,1002.60
2022-08-30T13:39:46.765Z,1002.63
2022-08-30T13:40:46.802Z,1002.66
2022-08-30T13:41:46.707Z,1002.64
2022-08-30T13:42:46.901Z,1002.64
2022-08-30T13:44:16.568Z,1002.60
2022-08-30T13:44:48.062Z,1002.64
2022-08-30T13:45:47.020Z,1002.59
2022-08-30T13:46:53.517Z,1002.58
2022-08-30T13:47:47.666Z,1002.58
2022-08-30T13:48:46.652Z,1002.59
2022-08-30T13:49:46.668Z,1002.58
2022-08-30T13:50:46.613Z,1002.55
2022-08-30T13:52:03.460Z,1002.58
2022-08-30T13:52:47.590Z,1002.58
2022-08-30T13:53:54.436Z,1002.58
2022-08-30T13:54:49.715Z,1002.60
2022-08-30T13:55:46.566Z,1002.52
2022-08-30T13:56:46.551Z,1002.50
2022-08-30T13:57:54.466Z,1002.55
2022-08-30T13:58:47.545Z,1002.54
2022-08-30T13:59:50.892Z,1002.48
2022-08-30T14:00:46.591Z,1002.47
2022-08-30T14:02:53.844Z,1002.46
2022-08-30T14:04:47.561Z,1002.46
2022-08-30T14:05:54.635Z,1002.46
2022-08-30T14:07:47.465Z,1002.39
2022-08-30T14:08:48.798Z,1002.38
2022-08-30T14:09:46.412Z,1002.40
2022-08-30T14:10:47.481Z,1002.44
2022-08-30T14:11:46.405Z,1002.44
2022-08-30T14:12:54.023Z,1002.42
2022-08-30T14:14:47.360Z,1002.38
2022-08-30T14:15:46.342Z,1002.37
2022-08-30T14:16:46.491Z,1002.37
2022-08-30T14:17:46.353Z,1002.32
2022-08-30T14:18:46.330Z,1002.28
2022-08-30T14:19:46.300Z,1002.28
2022-08-30T14:20:46.303Z,1002.28
2022-08-30T14:21:48.737Z,1002.28
2022-08-30T14:22:46.267Z,1002.25
2022-08-30T14:23:46.310Z,1002.22
2022-08-30T14:24:46.249Z,1002.23
2022-08-30T14:25:46.296Z,1002.29
2022-08-30T14:26:46.224Z,1002.32
2022-08-30T14:27:46.221Z,1002.29
2022-08-30T14:28:46.198Z,1002.30
2022-08-30T14:29:47.210Z,1002.30
2022-08-30T14:30:46.208Z,1002.32
2022-08-30T14:31:46.954Z,1002.31
2022-08-30T14:32:46.157Z,1002.26
2022-08-30T14:33:46.144Z,1002.26
2022-08-30T14:34:46.160Z,1002.27
2022-08-30T14:35:46.154Z,1002.28
2022-08-30T14:36:46.125Z,1002.24
2022-08-30T14:37:46.129Z,1002.24
2022-08-30T14:38:46.092Z,1002.25
2022-08-30T14:39:46.124Z,1002.21
2022-08-30T14:40:46.190Z,1002.20
2022-08-30T14:41:46.076Z,1002.18
2022-08-30T14:42:46.086Z,1002.16
2022-08-30T14:43:46.074Z,1002.19
2022-08-30T14:44:56.303Z,1002.19
2022-08-30T14:45:47.081Z,1002.18
2022-08-30T14:46:45.999Z,1002.19
2022-08-30T14:47:46.002Z,1002.18
2022-08-30T14:48:46.911Z,1002.11
2022-08-30T14:49:46.019Z,1002.13
2022-08-30T14:50:45.970Z,1002.12
2022-08-30T14:51:45.950Z,1002.12
2022-08-30T14:52:45.957Z,1002.12
2022-08-30T14:53:45.938Z,1002.09
2022-08-30T14:54:45.920Z,1002.11
2022-08-30T14:55:45.933Z,1002.09
2022-08-30T14:56:45.928Z,1002.05
2022-08-30T14:57:45.896Z,1002.07
2022-08-30T14:58:45.881Z,1002.05
2022-08-30T14:59:45.899Z,1002.06
2022-08-30T15:00:45.916Z,1002.07
2022-08-30T15:01:45.846Z,1002.08
2022-08-30T15:02:45.865Z,1002.05
2022-08-30T15:03:45.850Z,1002.06
2022-08-30T15:04:45.854Z,1002.05
2022-08-30T15:05:45.809Z,1002.05
2022-08-30T15:06:45.807Z,1002.01
2022-08-30T15:07:45.792Z,1002.01
2022-08-30T15:08:47.861Z,1002.01
2022-08-30T15:09:45.784Z,1001.93
2022-08-30T15:10:45.757Z,1001.97
2022-08-30T15:11:47.035Z,1001.95
2022-08-30T15:12:45.735Z,1001.96
2022-08-30T15:13:45.737Z,1001.88
2022-08-30T15:14:45.725Z,1001.89
2022-08-30T15:15:45.723Z,1001.91
2022-08-30T15:16:45.752Z,1001.90
2022-08-30T15:17:45.803Z,1001.91
2022-08-30T15:18:45.679Z,1001.87
2022-08-30T15:19:45.701Z,1001.89
2022-08-30T15:20:45.649Z,1001.92
2022-08-30T15:21:45.666Z,1001.92
2022-08-30T15:22:46.207Z,1001.90
2022-08-30T15:23:45.628Z,1001.88
2022-08-30T15:24:48.799Z,1001.83
2022-08-30T15:25:45.599Z,1001.82
2022-08-30T15:26:45.607Z,1001.79
2022-08-30T15:27:45.593Z,1001.82
2022-08-30T15:28:45.574Z,1001.84
2022-08-30T15:29:45.556Z,1001.80
2022-08-30T15:30:45.570Z,1001.82
2022-08-30T15:31:45.614Z,1001.81
2022-08-30T15:32:45.526Z,1001.77
2022-08-30T15:33:45.533Z,1001.79
2022-08-30T15:34:55.057Z,1001.77
2022-08-30T15:35:46.509Z,1001.75
2022-08-30T15:36:45.486Z,1001.74
2022-08-30T15:37:45.528Z,1001.69
2022-08-30T15:38:45.493Z,1001.74
2022-08-30T15:39:45.475Z,1001.75
2022-08-30T15:40:45.550Z,1001.74
2022-08-30T15:41:45.426Z,1001.73
2022-08-30T15:42:46.455Z,1001.70
2022-08-30T15:43:45.407Z,1001.70
2022-08-30T15:44:45.402Z,1001.66
2022-08-30T15:45:45.392Z,1001.65
2022-08-30T15:46:45.409Z,1001.62
2022-08-30T15:47:45.412Z,1001.61
2022-08-30T15:48:45.971Z,1001.65
2022-08-30T15:49:45.340Z,1001.59
2022-08-30T15:50:45.348Z,1001.64
2022-08-30T15:51:45.888Z,1001.64
2022-08-30T15:52:45.354Z,1001.54
2022-08-30T15:53:45.344Z,1001.52
2022-08-30T15:54:48.313Z,1001.57
2022-08-30T15:55:45.300Z,1001.58
2022-08-30T15:56:45.400Z,1001.58
2022-08-30T15:57:45.263Z,1001.55
2022-08-30T15:58:45.259Z,1001.52
2022-08-30T15:59:45.264Z,1001.58
2022-08-30T16:00:45.294Z,1001.55
2022-08-30T16:01:45.425Z,1001.53
2022-08-30T16:02:45.365Z,1001.54
2022-08-30T16:03:45.200Z,1001.55
2022-08-30T16:04:45.213Z,1001.48
2022-08-30T16:05:45.198Z,1001.49
2022-08-30T16:06:45.187Z,1001.51
2022-08-30T16:07:45.180Z,1001.48
2022-08-30T16:08:46.286Z,1001.49
2022-08-30T16:09:45.177Z,1001.49
2022-08-30T16:10:45.127Z,1001.48
2022-08-30T16:11:45.157Z,1001.48
2022-08-30T16:12:45.097Z,1001.44
2022-08-30T16:13:49.143Z,1001.45
2022-08-30T16:14:46.096Z,1001.42
2022-08-30T16:15:45.116Z,1001.44
2022-08-30T16:16:45.100Z,1001.42
2022-08-30T16:17:45.075Z,1001.53
2022-08-30T16:18:45.038Z,1001.49
2022-08-30T16:19:46.088Z,1001.45
2022-08-30T16:20:45.030Z,1001.47
2022-08-30T16:21:45.015Z,1001.48
2022-08-30T16:22:45.870Z,1001.48
2022-08-30T16:23:44.988Z,1001.46
2022-08-30T16:24:46.661Z,1001.46
2022-08-30T16:25:44.963Z,1001.45
2022-08-30T16:26:44.969Z,1001.45
2022-08-30T16:27:44.960Z,1001.45
2022-08-30T16:28:44.930Z,1001.52
2022-08-30T16:29:44.941Z,1001.45
2022-08-30T16:30:44.905Z,1001.49
2022-08-30T16:31:45.014Z,1001.50
2022-08-30T16:32:44.889Z,1001.45
2022-08-30T16:33:45.096Z,1001.44
2022-08-30T16:34:44.873Z,1001.47
2022-08-30T16:35:44.876Z,1001.44
2022-08-30T16:36:44.877Z,1001.43
2022-08-30T16:37:44.838Z,1001.40
2022-08-30T16:38:44.873Z,1001.43
2022-08-30T16:39:46.670Z,1001.42